Three Stars — 3ELI2 — position and weather

sailwx.info

Track history (hours):
 
Tides and Currents Weather Stations Pressure Air Temp Water Temp Dewpoint Dewpoint Depression Visibility Wind Speed Wind Dir Waves Ship Positions

Three Stars

Last reported at 2015-Aug-22 23:24 UTC. Time now 2015-Sep-02 14:55 UTC.
Position N 41°01' E 028°60'.
Warning: this ship's position is 10 days out of date.

Length 225 m; draft 7.5 m.

Type: Cargo ship. MMSI: 372950000.

Date/timePositionNaut miles runAvg speedWind from/ knotsBaromVisibWave heightAir tempDewpointWater temp
2015-Aug-22 23:24N 41°01' E 028°60'6 7.3
2015-Aug-22 22:31N 40°55' E 028°58'7 6.8
2015-Aug-22 21:33N 40°49' E 028°55'5 4.4
2015-Aug-22 20:26N 40°44' E 028°53'1 1.6
2015-Aug-22 19:32N 40°45' E 028°54'2 1.6
2015-Aug-22 18:20N 40°47' E 028°54'1 1.8
2015-Aug-22 17:32N 40°49' E 028°55'2 1.8
2015-Aug-22 16:32N 40°51' E 028°55'29410.0
2015-Aug-21 11:09N 37°37' E 024°09'9 9.8
2015-Aug-21 10:12N 37°35' E 023°58'913.4
2015-Aug-21 09:33N 37°38' E 023°47'1110.8
2015-Aug-21 08:33N 37°46' E 023°38'7 6.9
2015-Aug-21 07:33N 37°51' E 023°32'0 0.1
2015-Aug-21 06:33N 37°51' E 023°32'1 0.8
2015-Aug-21 05:33N 37°51' E 023°33'6 6.5
2015-Aug-21 04:33N 37°48' E 023°40'1211.9
2015-Aug-21 03:33N 37°37' E 023°45'1312.6
2015-Aug-21 02:33N 37°25' E 023°41'1412.9
2015-Aug-21 01:29N 37°11' E 023°38'1212.6
2015-Aug-21 00:31N 36°59' E 023°36'1212.3
2015-Aug-20 23:33N 36°48' E 023°34'2512.3
2015-Aug-20 21:33N 36°23' E 023°28'  
Track history (hours):
 
Tides and Currents Weather Stations Pressure Air Temp Water Temp Dewpoint Dewpoint Depression Visibility Wind Speed Wind Dir Waves Ship Positions

Three Stars

Last reported at 2015-Aug-22 23:24 UTC. Time now 2015-Sep-02 14:55 UTC.
Position N 41°01' E 028°60'.
Warning: this ship's position is 10 days out of date.

Length 225 m; draft 7.5 m.

Type: Cargo ship. MMSI: 372950000.

Date/timePositionNaut miles runAvg speedWind from/ knotsBaromVisibWave heightAir tempDewpointWater temp
2015-Aug-22 23:24N 41°01' E 028°60'6 7.3
2015-Aug-22 22:31N 40°55' E 028°58'7 6.8
2015-Aug-22 21:33N 40°49' E 028°55'5 4.4
2015-Aug-22 20:26N 40°44' E 028°53'1 1.6
2015-Aug-22 19:32N 40°45' E 028°54'2 1.6
2015-Aug-22 18:20N 40°47' E 028°54'1 1.8
2015-Aug-22 17:32N 40°49' E 028°55'2 1.8
2015-Aug-22 16:32N 40°51' E 028°55'29410.0
2015-Aug-21 11:09N 37°37' E 024°09'9 9.8
2015-Aug-21 10:12N 37°35' E 023°58'913.4
2015-Aug-21 09:33N 37°38' E 023°47'1110.8
2015-Aug-21 08:33N 37°46' E 023°38'7 6.9
2015-Aug-21 07:33N 37°51' E 023°32'0 0.1
2015-Aug-21 06:33N 37°51' E 023°32'1 0.8
2015-Aug-21 05:33N 37°51' E 023°33'6 6.5
2015-Aug-21 04:33N 37°48' E 023°40'1211.9
2015-Aug-21 03:33N 37°37' E 023°45'1312.6
2015-Aug-21 02:33N 37°25' E 023°41'1412.9
2015-Aug-21 01:29N 37°11' E 023°38'1212.6
2015-Aug-21 00:31N 36°59' E 023°36'1212.3
2015-Aug-20 23:33N 36°48' E 023°34'2512.3
2015-Aug-20 21:33N 36°23' E 023°28'  

Dump ship's entire track history